Terminal Aerodrome Forecast
Issued by NWS

Current Version | Previous Version | Text Only | Print | Product List | Glossary Off
Versions: 1 2 3 4 5 6 7 8 9 10 11 12 13 14 15

000
FTUS41 KPBZ 230925 AAA
TAFHLG
TAF AMD
KHLG 230925Z 2309/2406 00000KT 5SM BR SCT001
      TEMPO 2310/2313 1SM BR
     FM231400 VRB03KT P6SM SKC=

USA.gov is the U.S. government's official web portal to all federal, state and local government web resources and services.